createdAt,value
2022-11-18T00:01:47.661Z,6.90
2022-11-18T00:04:35.344Z,7.08
2022-11-18T00:07:24.433Z,8.15
2022-11-18T00:10:11.729Z,7.10
2022-11-18T00:13:17.500Z,8.85
2022-11-18T00:16:07.191Z,7.55
2022-11-18T00:18:54.540Z,7.15
2022-11-18T00:21:42.110Z,8.83
2022-11-18T00:24:29.482Z,9.93
2022-11-18T00:27:16.982Z,9.23
2022-11-18T00:30:04.335Z,8.98
2022-11-18T00:32:54.499Z,9.73
2022-11-18T00:35:41.979Z,13.55
2022-11-18T00:38:30.924Z,12.70
2022-11-18T00:41:18.219Z,10.93
2022-11-18T00:44:09.404Z,8.80
2022-11-18T00:46:54.603Z,9.73
2022-11-18T00:49:41.664Z,9.38
2022-11-18T00:52:29.218Z,10.20
2022-11-18T00:55:16.769Z,9.45
2022-11-18T00:58:03.682Z,10.32
2022-11-18T01:00:53.933Z,10.13
2022-11-18T01:03:41.470Z,10.85
2022-11-18T01:06:28.781Z,11.95
2022-11-18T01:09:16.289Z,13.22
2022-11-18T01:12:22.223Z,11.80
2022-11-18T01:15:09.872Z,10.25
2022-11-18T01:17:57.453Z,10.45
2022-11-18T01:20:45.574Z,10.58
2022-11-18T01:23:33.452Z,10.32
2022-11-18T01:26:21.672Z,10.23
2022-11-18T01:29:08.915Z,12.28
2022-11-18T01:32:22.848Z,12.00
2022-11-18T01:34:44.997Z,12.47
2022-11-18T01:37:32.400Z,14.25
2022-11-18T01:40:19.669Z,13.72
2022-11-18T01:43:16.211Z,13.55
2022-11-18T01:46:03.322Z,16.45
2022-11-18T01:48:56.524Z,16.05
2022-11-18T01:51:47.005Z,14.58
2022-11-18T01:54:37.557Z,16.95
2022-11-18T01:57:27.721Z,18.60
2022-11-18T02:00:15.732Z,16.65
2022-11-18T02:03:03.623Z,17.65
2022-11-18T02:05:53.192Z,18.00
2022-11-18T02:08:42.618Z,17.92
2022-11-18T02:11:48.970Z,18.87
2022-11-18T02:14:39.435Z,18.57
2022-11-18T02:17:44.878Z,17.75
2022-11-18T02:20:35.483Z,18.73
2022-11-18T02:23:40.699Z,18.00
2022-11-18T02:26:40.871Z,18.10
2022-11-18T02:29:36.993Z,19.35
2022-11-18T02:32:27.208Z,18.40
2022-11-18T02:35:21.094Z,19.02
2022-11-18T02:38:14.494Z,19.30
2022-11-18T02:41:04.866Z,20.12
2022-11-18T02:44:10.370Z,19.77
2022-11-18T02:47:01.230Z,20.62
2022-11-18T02:49:53.007Z,20.57
2022-11-18T02:52:41.519Z,20.55
2022-11-18T02:55:32.022Z,20.57
2022-11-18T02:58:27.547Z,20.45
2022-11-18T03:01:23.652Z,20.35
2022-11-18T03:04:10.981Z,20.60
2022-11-18T03:07:05.648Z,21.70
2022-11-18T03:09:58.105Z,20.77
2022-11-18T03:13:03.070Z,22.13
2022-11-18T03:15:59.293Z,21.10
2022-11-18T03:18:52.624Z,20.70
2022-11-18T03:21:45.611Z,19.80
2022-11-18T03:24:36.368Z,21.40
2022-11-18T03:27:26.674Z,20.37
2022-11-18T03:30:17.095Z,19.57
2022-11-18T03:33:07.401Z,20.35
2022-11-18T03:35:55.392Z,18.95
2022-11-18T03:38:45.700Z,19.67
2022-11-18T03:41:36.421Z,20.65
2022-11-18T03:44:26.676Z,19.52
2022-11-18T03:47:19.976Z,21.02
2022-11-18T03:50:10.248Z,19.45
2022-11-18T03:52:58.540Z,20.43
2022-11-18T03:55:49.393Z,18.62
2022-11-18T03:58:45.679Z,19.70
2022-11-18T04:01:36.485Z,18.60
2022-11-18T04:04:26.531Z,18.73
2022-11-18T04:07:38.160Z,18.60
2022-11-18T04:10:43.130Z,18.30
2022-11-18T04:13:34.006Z,19.67
2022-11-18T04:16:24.282Z,19.17
2022-11-18T04:19:11.733Z,18.10
2022-11-18T04:21:59.002Z,18.42
2022-11-18T04:24:46.628Z,17.80
2022-11-18T04:27:34.016Z,17.00
2022-11-18T04:30:24.233Z,17.65
2022-11-18T04:33:11.685Z,17.73
2022-11-18T04:35:58.879Z,15.70
2022-11-18T04:38:46.676Z,16.65
2022-11-18T04:41:51.656Z,17.37
2022-11-18T04:44:39.285Z,17.07
2022-11-18T04:47:26.868Z,17.30
2022-11-18T04:50:14.511Z,17.60
2022-11-18T04:53:01.627Z,18.25
2022-11-18T04:55:49.072Z,16.77
2022-11-18T04:58:36.222Z,16.93
2022-11-18T05:01:27.082Z,17.55
2022-11-18T05:04:16.452Z,17.67
2022-11-18T05:07:05.728Z,18.07
2022-11-18T05:09:54.271Z,18.20
2022-11-18T05:12:52.332Z,17.95
2022-11-18T05:15:39.549Z,18.77
2022-11-18T05:18:26.753Z,17.27
2022-11-18T05:21:14.154Z,18.20
2022-11-18T05:24:02.558Z,17.32
2022-11-18T05:26:49.725Z,16.52
2022-11-18T05:29:37.037Z,16.73
2022-11-18T05:32:24.290Z,17.05
2022-11-18T05:35:11.794Z,17.48
2022-11-18T05:37:59.057Z,17.40
2022-11-18T05:40:47.077Z,16.20
2022-11-18T05:43:35.446Z,15.88
2022-11-18T05:46:25.253Z,18.02
2022-11-18T05:49:12.658Z,18.48
2022-11-18T05:51:59.852Z,17.80
2022-11-18T05:54:53.097Z,18.35
2022-11-18T05:57:40.737Z,17.73
2022-11-18T06:00:28.616Z,17.25
2022-11-18T06:03:31.032Z,17.07
2022-11-18T06:06:23.862Z,15.98
2022-11-18T06:09:13.670Z,16.87
2022-11-18T06:12:03.951Z,16.82
2022-11-18T06:14:54.551Z,15.53
2022-11-18T06:17:45.432Z,15.75
2022-11-18T06:20:35.128Z,15.68
2022-11-18T06:23:23.540Z,16.00
2022-11-18T06:26:12.222Z,14.50
2022-11-18T06:29:00.068Z,15.05
2022-11-18T06:31:47.687Z,15.43
2022-11-18T06:34:41.002Z,14.63
2022-11-18T06:37:23.527Z,14.65
2022-11-18T06:40:11.949Z,14.33
2022-11-18T06:43:21.513Z,14.83
2022-11-18T06:46:29.594Z,13.22
2022-11-18T06:49:18.319Z,13.98
2022-11-18T06:52:05.676Z,13.03
2022-11-18T06:54:54.375Z,13.38
2022-11-18T06:57:41.868Z,12.93
2022-11-18T07:00:29.639Z,13.48
2022-11-18T07:03:17.544Z,13.20
2022-11-18T07:06:05.151Z,12.43
2022-11-18T07:08:54.297Z,13.22
2022-11-18T07:11:41.882Z,12.98
2022-11-18T07:14:29.345Z,13.22
2022-11-18T07:17:16.642Z,13.32
2022-11-18T07:20:04.868Z,12.82
2022-11-18T07:22:54.074Z,13.35
2022-11-18T07:25:45.302Z,12.30
2022-11-18T07:28:30.952Z,12.40
2022-11-18T07:31:21.127Z,13.05
2022-11-18T07:34:08.882Z,12.55
2022-11-18T07:36:56.198Z,12.23
2022-11-18T07:39:43.782Z,12.63
2022-11-18T07:42:32.628Z,12.23
2022-11-18T07:45:21.437Z,13.68
2022-11-18T07:48:08.680Z,13.43
2022-11-18T07:50:56.320Z,14.43
2022-11-18T07:53:44.073Z,13.43
2022-11-18T07:56:31.271Z,13.50
2022-11-18T07:59:19.246Z,13.53
2022-11-18T08:02:06.662Z,13.45
2022-11-18T08:04:54.198Z,13.68
2022-11-18T08:07:41.853Z,12.65
2022-11-18T08:10:29.546Z,13.80
2022-11-18T08:13:17.048Z,14.60
2022-11-18T08:16:05.349Z,13.45
2022-11-18T08:18:54.720Z,12.80
2022-11-18T08:21:42.398Z,13.53
2022-11-18T08:24:29.603Z,12.75
2022-11-18T08:27:17.506Z,13.62
2022-11-18T08:30:05.393Z,13.28
2022-11-18T08:32:54.447Z,14.25
2022-11-18T08:35:41.707Z,12.93
2022-11-18T08:38:29.482Z,14.00
2022-11-18T08:41:22.061Z,14.13
2022-11-18T08:44:10.867Z,13.32
2022-11-18T08:46:58.284Z,13.00
2022-11-18T08:49:48.409Z,13.13
2022-11-18T08:52:36.067Z,12.70
2022-11-18T08:55:23.638Z,13.08
2022-11-18T08:58:11.484Z,12.33
2022-11-18T09:00:59.076Z,11.70
2022-11-18T09:03:47.239Z,12.90
2022-11-18T09:06:34.951Z,11.85
2022-11-18T09:09:24.379Z,12.13
2022-11-18T09:12:13.383Z,11.35
2022-11-18T09:15:16.654Z,10.60
2022-11-18T09:17:49.477Z,9.55
2022-11-18T09:20:38.202Z,10.03
2022-11-18T09:23:25.956Z,9.00
2022-11-18T09:26:16.901Z,9.20
2022-11-18T09:29:04.583Z,9.15
2022-11-18T09:31:54.730Z,8.63
2022-11-18T09:34:43.456Z,8.55
2022-11-18T09:37:31.159Z,9.80
2022-11-18T09:40:19.432Z,13.22
2022-11-18T09:43:13.016Z,10.25
2022-11-18T09:46:03.583Z,8.20
2022-11-18T09:49:09.213Z,7.85
2022-11-18T09:51:57.810Z,7.15
2022-11-18T09:54:45.200Z,7.83
2022-11-18T09:57:38.495Z,6.95
2022-11-18T10:00:31.039Z,6.22
2022-11-18T10:03:33.797Z,6.67
2022-11-18T10:06:32.185Z,7.15
2022-11-18T10:09:28.829Z,7.03
2022-11-18T10:12:37.308Z,6.30
2022-11-18T10:15:27.578Z,6.47
2022-11-18T10:18:59.773Z,6.33
2022-11-18T10:21:36.900Z,6.60
2022-11-18T10:24:27.466Z,7.35
2022-11-18T10:27:16.959Z,7.22
2022-11-18T10:30:07.401Z,7.65
2022-11-18T10:33:06.994Z,6.95
2022-11-18T10:36:12.903Z,7.20
2022-11-18T10:39:17.096Z,7.05
2022-11-18T10:42:07.485Z,17.07
2022-11-18T10:44:54.912Z,9.15
2022-11-18T10:47:42.257Z,5.70
2022-11-18T10:50:38.884Z,5.00
2022-11-18T10:53:37.559Z,4.85
2022-11-18T10:56:25.983Z,4.37
2022-11-18T10:59:34.870Z,4.85
2022-11-18T11:02:29.996Z,4.58
2022-11-18T11:05:24.968Z,4.75
2022-11-18T11:08:37.642Z,4.15
2022-11-18T11:11:16.065Z,4.55
2022-11-18T11:14:43.926Z,4.50
2022-11-18T11:17:54.683Z,3.98
2022-11-18T11:20:42.204Z,4.12
2022-11-18T11:23:31.748Z,4.15
2022-11-18T11:29:36.256Z,3.83
2022-11-18T11:32:53.868Z,4.33
2022-11-18T11:35:51.432Z,3.80
2022-11-18T11:39:05.180Z,4.25
2022-11-18T11:42:22.120Z,4.17
2022-11-18T11:45:24.573Z,3.93
2022-11-18T11:48:18.282Z,3.42
2022-11-18T11:51:17.821Z,3.52
2022-11-18T11:54:11.098Z,3.55
2022-11-18T11:57:07.827Z,3.33
2022-11-18T12:00:04.655Z,2.85
2022-11-18T12:03:09.848Z,2.47
2022-11-18T12:05:57.007Z,2.62
2022-11-18T12:08:56.592Z,2.30
2022-11-18T12:11:52.051Z,1.07
2022-11-18T12:14:42.349Z,1.02
2022-11-18T12:17:34.346Z,0.90
2022-11-18T12:20:45.561Z,1.00
2022-11-18T12:23:34.756Z,1.27
2022-11-18T12:26:37.231Z,1.30
2022-11-18T12:29:27.584Z,1.00
2022-11-18T12:32:27.013Z,1.22
2022-11-18T12:35:22.280Z,1.00
2022-11-18T12:38:14.463Z,1.10
2022-11-18T12:41:02.999Z,0.65
2022-11-18T12:43:53.405Z,1.15
2022-11-18T12:46:49.504Z,0.88
2022-11-18T12:49:40.158Z,0.93
2022-11-18T12:52:36.202Z,1.10
2022-11-18T12:55:27.201Z,1.00
2022-11-18T12:58:25.086Z,1.10
2022-11-18T13:01:14.880Z,1.40
2022-11-18T13:04:14.678Z,1.35
2022-11-18T13:07:03.460Z,1.98
2022-11-18T13:09:54.582Z,1.52
2022-11-18T13:12:43.174Z,1.45
2022-11-18T13:15:48.276Z,1.37
2022-11-18T13:18:37.362Z,1.62
2022-11-18T13:21:45.603Z,1.98
2022-11-18T13:24:34.934Z,1.98
2022-11-18T13:27:49.629Z,1.80
2022-11-18T13:30:39.874Z,1.20
2022-11-18T13:33:27.723Z,1.25
2022-11-18T13:36:20.802Z,0.95
2022-11-18T13:39:10.082Z,0.90
2022-11-18T13:42:02.377Z,1.10
2022-11-18T13:44:57.571Z,1.17
2022-11-18T13:47:51.024Z,1.15
2022-11-18T13:50:46.051Z,1.25
2022-11-18T13:53:41.267Z,1.25
2022-11-18T13:56:35.087Z,1.17
2022-11-18T13:59:23.735Z,1.40
2022-11-18T14:02:14.319Z,1.22
2022-11-18T14:05:02.909Z,1.12
2022-11-18T14:08:02.331Z,1.10
2022-11-18T14:10:49.479Z,0.95
2022-11-18T14:13:39.730Z,1.40
2022-11-18T14:16:32.718Z,1.20
2022-11-18T14:19:33.812Z,1.20
2022-11-18T14:22:26.921Z,1.10
2022-11-18T14:25:19.931Z,1.20
2022-11-18T14:28:22.568Z,0.85
2022-11-18T14:31:21.817Z,1.27
2022-11-18T14:34:27.301Z,0.90
2022-11-18T14:37:15.800Z,1.17
2022-11-18T14:40:03.106Z,1.10
2022-11-18T14:42:50.524Z,1.07
2022-11-18T14:45:38.682Z,0.80
2022-11-18T14:48:32.312Z,2.00
2022-11-18T14:51:17.811Z,0.70
2022-11-18T14:54:04.922Z,0.93
2022-11-18T14:56:53.984Z,0.75
2022-11-18T14:59:41.295Z,0.90
2022-11-18T15:02:28.587Z,1.00
2022-11-18T15:05:15.708Z,0.90
2022-11-18T15:08:03.532Z,0.95
2022-11-18T15:10:50.871Z,1.20
2022-11-18T15:13:39.171Z,1.30
2022-11-18T15:16:29.472Z,1.10
2022-11-18T15:19:16.938Z,1.07
2022-11-18T15:22:04.170Z,1.50
2022-11-18T15:24:51.759Z,2.10
2022-11-18T15:27:39.144Z,1.90
2022-11-18T15:30:26.515Z,1.95
2022-11-18T15:33:13.921Z,1.92
2022-11-18T15:36:01.380Z,2.35
2022-11-18T15:38:49.669Z,1.80
2022-11-18T15:41:38.196Z,1.90
2022-11-18T15:44:25.373Z,1.62
2022-11-18T15:47:12.844Z,1.30
2022-11-18T15:50:00.346Z,1.67
2022-11-18T15:52:47.355Z,1.50
2022-11-18T15:55:35.029Z,1.55
2022-11-18T15:58:22.313Z,2.22
2022-11-18T16:01:09.573Z,1.32
2022-11-18T16:03:57.326Z,1.60
2022-11-18T16:06:44.795Z,1.67
2022-11-18T16:09:50.253Z,1.60
2022-11-18T16:12:46.700Z,1.80
2022-11-18T16:15:44.610Z,2.50
2022-11-18T16:18:33.477Z,3.00
2022-11-18T16:21:20.771Z,2.37
2022-11-18T16:24:10.943Z,2.00
2022-11-18T16:26:58.770Z,2.30
2022-11-18T16:29:46.139Z,2.10
2022-11-18T16:32:33.625Z,2.30
2022-11-18T16:35:20.759Z,2.35
2022-11-18T16:38:09.665Z,2.70
2022-11-18T16:40:57.903Z,2.70
2022-11-18T16:43:45.398Z,2.75
2022-11-18T16:46:34.502Z,2.70
2022-11-18T16:49:23.857Z,2.60
2022-11-18T16:52:11.200Z,2.22
2022-11-18T16:54:58.638Z,2.90
2022-11-18T16:57:46.026Z,3.62
2022-11-18T17:01:09.087Z,2.92
2022-11-18T17:03:22.266Z,2.55
2022-11-18T17:06:10.479Z,3.25
2022-11-18T17:08:58.838Z,2.95
2022-11-18T17:11:46.311Z,3.42
2022-11-18T17:14:33.958Z,3.40
2022-11-18T17:17:21.278Z,3.62
2022-11-18T17:20:08.390Z,3.05
2022-11-18T17:22:55.517Z,3.37
2022-11-18T17:25:43.550Z,3.92
2022-11-18T17:28:32.264Z,4.47
2022-11-18T17:31:21.748Z,5.62
2022-11-18T17:34:12.074Z,5.20
2022-11-18T17:37:04.779Z,3.95
2022-11-18T17:39:48.111Z,3.37
2022-11-18T17:42:35.622Z,2.95
2022-11-18T17:45:22.744Z,2.70
2022-11-18T17:48:09.757Z,3.22
2022-11-18T17:51:06.044Z,5.50
2022-11-18T17:53:53.599Z,6.10
2022-11-18T17:56:41.255Z,4.70
2022-11-18T17:59:28.569Z,6.08
2022-11-18T18:02:16.023Z,5.28
2022-11-18T18:05:03.829Z,5.70
2022-11-18T18:07:51.276Z,7.05
2022-11-18T18:10:41.542Z,5.97
2022-11-18T18:13:46.917Z,5.28
2022-11-18T18:16:34.754Z,6.58
2022-11-18T18:19:24.030Z,5.95
2022-11-18T18:22:11.243Z,5.72
2022-11-18T18:24:58.361Z,6.65
2022-11-18T18:27:45.779Z,5.53
2022-11-18T18:30:33.175Z,6.35
2022-11-18T18:33:20.601Z,4.78
2022-11-18T18:36:09.488Z,5.15
2022-11-18T18:38:58.928Z,4.85
2022-11-18T18:41:46.152Z,5.55
2022-11-18T18:44:50.976Z,6.60
2022-11-18T18:47:38.265Z,7.33
2022-11-18T18:50:29.635Z,7.20
2022-11-18T18:53:14.568Z,6.50
2022-11-18T18:56:02.046Z,6.25
2022-11-18T18:58:49.670Z,7.92
2022-11-18T19:01:37.633Z,7.22
2022-11-18T19:04:24.600Z,7.87
2022-11-18T19:07:11.940Z,6.42
2022-11-18T19:09:59.370Z,7.45
2022-11-18T19:12:48.182Z,5.90
2022-11-18T19:15:36.200Z,7.12
2022-11-18T19:18:24.233Z,6.85
2022-11-18T19:21:12.052Z,7.47
2022-11-18T19:23:59.317Z,7.95
2022-11-18T19:26:47.287Z,7.37
2022-11-18T19:29:34.412Z,8.88
2022-11-18T19:32:21.763Z,8.28
2022-11-18T19:35:10.281Z,6.95
2022-11-18T19:37:57.781Z,7.85
2022-11-18T19:40:45.225Z,6.37
2022-11-18T19:43:32.962Z,7.28
2022-11-18T19:46:20.357Z,4.37
2022-11-18T19:49:07.459Z,5.00
2022-11-18T19:51:54.559Z,5.10
2022-11-18T19:54:42.368Z,4.97
2022-11-18T19:57:29.852Z,6.10
2022-11-18T20:00:18.204Z,7.08
2022-11-18T20:03:06.057Z,7.97
2022-11-18T20:05:53.592Z,8.55
2022-11-18T20:08:41.681Z,8.28
2022-11-18T20:11:28.602Z,8.45
2022-11-18T20:14:15.769Z,7.92
2022-11-18T20:17:02.997Z,6.92
2022-11-18T20:19:50.126Z,6.15
2022-11-18T20:22:37.485Z,6.03
2022-11-18T20:25:24.508Z,6.05
2022-11-18T20:28:13.391Z,6.10
2022-11-18T20:31:00.838Z,5.60
2022-11-18T20:33:50.831Z,5.85
2022-11-18T20:36:37.983Z,5.08
2022-11-18T20:39:25.623Z,5.03
2022-11-18T20:42:31.014Z,5.15
2022-11-18T20:45:18.104Z,5.97
2022-11-18T20:48:05.636Z,6.25
2022-11-18T20:50:52.847Z,6.25
2022-11-18T20:53:42.385Z,6.08
2022-11-18T20:56:29.792Z,7.95
2022-11-18T20:59:17.549Z,7.05
2022-11-18T21:02:05.065Z,7.22
2022-11-18T21:04:51.875Z,6.70
2022-11-18T21:07:39.028Z,6.62
2022-11-18T21:10:26.320Z,7.55
2022-11-18T21:13:31.458Z,7.12
2022-11-18T21:16:19.657Z,6.90
2022-11-18T21:19:06.686Z,7.80
2022-11-18T21:21:55.079Z,7.30
2022-11-18T21:24:42.412Z,6.33
2022-11-18T21:27:29.526Z,6.30
2022-11-18T21:30:18.713Z,7.10
2022-11-18T21:33:06.092Z,6.45
2022-11-18T21:35:53.424Z,5.75
2022-11-18T21:38:40.680Z,5.55
2022-11-18T21:41:29.580Z,5.85
2022-11-18T21:44:17.406Z,6.03
2022-11-18T21:47:04.770Z,5.50
2022-11-18T21:49:52.167Z,5.97
2022-11-18T21:52:39.687Z,5.03
2022-11-18T21:55:27.281Z,5.85
2022-11-18T21:58:14.491Z,5.55
2022-11-18T22:01:14.252Z,4.70
2022-11-18T22:04:03.447Z,5.20
2022-11-18T22:06:50.542Z,6.70
2022-11-18T22:09:38.021Z,6.72
2022-11-18T22:12:25.530Z,5.95
2022-11-18T22:15:12.626Z,5.45
2022-11-18T22:18:00.018Z,5.42
2022-11-18T22:20:47.537Z,6.20
2022-11-18T22:23:35.351Z,6.45
2022-11-18T22:26:22.735Z,6.85
2022-11-18T22:29:10.181Z,7.22
2022-11-18T22:31:57.654Z,7.20
2022-11-18T22:34:49.218Z,7.75
2022-11-18T22:37:33.972Z,8.15
2022-11-18T22:40:21.443Z,8.43
2022-11-18T22:43:09.033Z,9.13
2022-11-18T22:46:08.298Z,9.10
2022-11-18T22:48:57.629Z,7.67
2022-11-18T22:51:44.931Z,7.55
2022-11-18T22:54:40.515Z,7.42
2022-11-18T22:57:21.588Z,6.58
2022-11-18T23:00:10.108Z,6.33
2022-11-18T23:02:57.180Z,5.53
2022-11-18T23:05:46.824Z,4.22
2022-11-18T23:08:36.693Z,3.72
2022-11-18T23:11:42.072Z,3.60
2022-11-18T23:14:29.220Z,3.17
2022-11-18T23:17:16.710Z,2.98
2022-11-18T23:20:03.718Z,2.60
2022-11-18T23:22:51.021Z,3.20
2022-11-18T23:25:38.483Z,2.95
2022-11-18T23:28:26.092Z,3.17
2022-11-18T23:31:16.375Z,3.20
2022-11-18T23:34:03.553Z,3.47
2022-11-18T23:36:50.991Z,3.08
2022-11-18T23:39:38.989Z,3.33
2022-11-18T23:42:26.144Z,3.75
2022-11-18T23:45:13.245Z,3.40
2022-11-18T23:48:00.545Z,3.60
2022-11-18T23:51:02.792Z,4.28
2022-11-18T23:53:55.231Z,4.03
2022-11-18T23:56:42.635Z,4.58
2022-11-18T23:59:30.054Z,4.90
